createdAt,value
2023-02-05T00:01:27.852Z,14.30
2023-02-05T00:03:54.509Z,14.70
2023-02-05T00:06:21.183Z,16.97
2023-02-05T00:08:47.841Z,14.90
2023-02-05T00:11:14.519Z,15.37
2023-02-05T00:13:42.401Z,14.73
2023-02-05T00:16:13.090Z,11.87
2023-02-05T00:18:40.042Z,15.57
2023-02-05T00:21:07.698Z,13.90
2023-02-05T00:23:35.552Z,18.80
2023-02-05T00:26:03.613Z,16.27
2023-02-05T00:28:33.123Z,14.13
2023-02-05T00:31:00.403Z,13.77
2023-02-05T00:33:27.248Z,12.70
2023-02-05T00:35:53.946Z,14.20
2023-02-05T00:38:20.553Z,12.73
2023-02-05T00:40:48.253Z,13.37
2023-02-05T00:43:16.114Z,13.07
2023-02-05T00:45:42.804Z,11.83
2023-02-05T00:48:09.472Z,13.20
2023-02-05T00:50:36.343Z,12.13
2023-02-05T00:53:03.329Z,12.83
2023-02-05T00:55:30.663Z,10.77
2023-02-05T00:57:57.325Z,12.33
2023-02-05T01:00:24.141Z,11.50
2023-02-05T01:02:50.944Z,13.80
2023-02-05T01:05:17.662Z,13.97
2023-02-05T01:07:47.164Z,13.73
2023-02-05T01:10:13.788Z,10.33
2023-02-05T01:12:40.428Z,10.53
2023-02-05T01:15:08.298Z,11.63
2023-02-05T01:17:34.991Z,11.23
2023-02-05T01:20:01.678Z,11.67
2023-02-05T01:22:28.426Z,10.50
2023-02-05T01:24:55.068Z,13.13
2023-02-05T01:27:21.688Z,12.57
2023-02-05T01:29:48.376Z,10.43
2023-02-05T01:32:16.121Z,13.07
2023-02-05T01:34:42.828Z,12.40
2023-02-05T01:37:09.541Z,13.97
2023-02-05T01:39:37.350Z,14.80
2023-02-05T01:42:06.639Z,13.90
2023-02-05T01:44:33.263Z,15.50
2023-02-05T01:46:59.945Z,15.53
2023-02-05T01:49:38.885Z,15.40
2023-02-05T01:52:16.812Z,13.67
2023-02-05T01:54:49.011Z,16.47
2023-02-05T01:57:20.742Z,16.93
2023-02-05T01:59:49.653Z,14.17
2023-02-05T02:02:16.811Z,14.23
2023-02-05T02:04:47.525Z,15.10
2023-02-05T02:07:19.746Z,14.87
2023-02-05T02:09:48.460Z,17.93
2023-02-05T02:12:20.595Z,14.87
2023-02-05T02:14:51.596Z,15.90
2023-02-05T02:17:19.373Z,13.30
2023-02-05T02:20:11.067Z,12.93
2023-02-05T02:22:55.744Z,13.13
2023-02-05T02:25:49.892Z,16.50
2023-02-05T02:28:37.688Z,14.80
2023-02-05T02:31:17.145Z,15.33
2023-02-05T02:33:58.288Z,15.07
2023-02-05T02:36:47.017Z,15.43
2023-02-05T02:39:20.760Z,14.37
2023-02-05T02:42:01.984Z,13.33
2023-02-05T02:44:41.106Z,15.53
2023-02-05T02:47:15.795Z,13.47
2023-02-05T02:49:53.512Z,13.80
2023-02-05T02:52:23.445Z,13.27
2023-02-05T02:54:58.849Z,15.53
2023-02-05T02:57:28.082Z,14.23
2023-02-05T03:00:00.232Z,11.97
2023-02-05T03:02:30.504Z,14.93
2023-02-05T03:05:02.286Z,17.70
2023-02-05T03:07:33.896Z,12.70
2023-02-05T03:10:03.067Z,11.40
2023-02-05T03:12:30.454Z,15.17
2023-02-05T03:14:57.641Z,12.53
2023-02-05T03:17:26.020Z,12.17
2023-02-05T03:20:15.726Z,13.43
2023-02-05T03:22:42.410Z,12.10
2023-02-05T03:25:09.557Z,12.63
2023-02-05T03:27:36.692Z,13.40
2023-02-05T03:30:05.295Z,12.77
2023-02-05T03:33:12.471Z,12.10
2023-02-05T03:35:46.382Z,10.73
2023-02-05T03:38:12.945Z,10.67
2023-02-05T03:40:50.838Z,15.03
2023-02-05T03:43:30.208Z,11.83
2023-02-05T03:46:06.486Z,12.20
2023-02-05T03:49:14.591Z,9.13
2023-02-05T03:51:47.302Z,11.47
2023-02-05T03:54:29.293Z,9.10
2023-02-05T03:57:39.759Z,11.27
2023-02-05T04:00:07.597Z,8.33
2023-02-05T04:02:34.518Z,11.00
2023-02-05T04:05:01.144Z,9.97
2023-02-05T04:07:27.781Z,9.37
2023-02-05T04:09:54.367Z,10.87
2023-02-05T04:12:21.102Z,8.03
2023-02-05T04:14:47.748Z,8.03
2023-02-05T04:17:14.437Z,8.90
2023-02-05T04:19:41.477Z,8.97
2023-02-05T04:22:08.119Z,8.60
2023-02-05T04:24:34.722Z,9.00
2023-02-05T04:27:01.317Z,9.27
2023-02-05T04:29:27.981Z,10.60
2023-02-05T04:31:54.671Z,9.17
2023-02-05T04:34:21.320Z,7.37
2023-02-05T04:36:47.935Z,8.17
2023-02-05T04:39:14.540Z,7.87
2023-02-05T04:41:41.203Z,8.10
2023-02-05T04:44:07.854Z,8.47
2023-02-05T04:46:34.564Z,8.50
2023-02-05T04:49:01.483Z,7.03
2023-02-05T04:51:28.158Z,7.17
2023-02-05T04:53:54.788Z,7.67
2023-02-05T04:56:21.417Z,7.43
2023-02-05T04:58:48.059Z,9.23
2023-02-05T05:01:16.956Z,8.33
2023-02-05T05:03:44.231Z,7.77
2023-02-05T05:06:11.289Z,7.23
2023-02-05T05:08:38.342Z,7.37
2023-02-05T05:11:10.325Z,7.37
2023-02-05T05:13:37.885Z,8.03
2023-02-05T05:16:05.455Z,6.23
2023-02-05T05:18:32.236Z,7.27
2023-02-05T05:20:59.093Z,6.20
2023-02-05T05:23:25.716Z,6.60
2023-02-05T05:25:52.377Z,6.73
2023-02-05T05:28:19.315Z,7.43
2023-02-05T05:30:47.195Z,8.97
2023-02-05T05:33:14.322Z,8.03
2023-02-05T05:35:41.131Z,8.13
2023-02-05T05:38:08.353Z,6.53
2023-02-05T05:40:53.762Z,7.63
2023-02-05T05:43:39.989Z,7.17
2023-02-05T05:46:07.575Z,8.20
2023-02-05T05:48:34.740Z,6.77
2023-02-05T05:51:01.591Z,7.23
2023-02-05T05:53:28.592Z,11.10
2023-02-05T05:55:55.249Z,9.80
2023-02-05T05:58:21.904Z,7.30
2023-02-05T06:00:48.660Z,6.60
2023-02-05T06:03:15.916Z,6.23
2023-02-05T06:05:42.694Z,5.77
2023-02-05T06:08:09.371Z,8.87
2023-02-05T06:10:36.217Z,6.27
2023-02-05T06:13:02.882Z,7.27
2023-02-05T06:15:29.534Z,7.70
2023-02-05T06:17:56.275Z,7.50
2023-02-05T06:20:23.257Z,8.37
2023-02-05T06:22:49.839Z,7.93
2023-02-05T06:25:16.569Z,8.40
2023-02-05T06:27:43.406Z,5.83
2023-02-05T06:30:10.938Z,8.67
2023-02-05T06:32:37.568Z,5.53
2023-02-05T06:35:04.470Z,8.50
2023-02-05T06:37:46.232Z,7.87
2023-02-05T06:40:15.568Z,7.43
2023-02-05T06:42:42.681Z,7.00
2023-02-05T06:45:10.419Z,6.70
2023-02-05T06:47:37.846Z,8.33
2023-02-05T06:50:08.305Z,6.93
2023-02-05T06:52:35.140Z,7.17
2023-02-05T06:55:01.850Z,7.10
2023-02-05T06:57:28.566Z,7.07
2023-02-05T06:59:55.170Z,7.33
2023-02-05T07:02:21.866Z,7.13
2023-02-05T07:04:48.669Z,8.90
2023-02-05T07:07:16.791Z,6.50
2023-02-05T07:09:44.316Z,6.70
2023-02-05T07:12:11.164Z,6.67
2023-02-05T07:14:39.793Z,9.37
2023-02-05T07:17:07.524Z,6.80
2023-02-05T07:19:34.701Z,11.27
2023-02-05T07:22:01.421Z,6.20
2023-02-05T07:24:28.087Z,7.03
2023-02-05T07:26:54.820Z,7.33
2023-02-05T07:29:21.449Z,7.60
2023-02-05T07:31:52.015Z,6.73
2023-02-05T07:34:19.097Z,7.97
2023-02-05T07:36:45.749Z,6.60
2023-02-05T07:39:12.424Z,10.27
2023-02-05T07:41:39.082Z,9.50
2023-02-05T07:44:06.789Z,8.50
2023-02-05T07:46:33.479Z,6.73
2023-02-05T07:49:00.132Z,12.13
2023-02-05T07:51:27.013Z,8.07
2023-02-05T07:53:53.969Z,7.70
2023-02-05T07:56:21.708Z,8.57
2023-02-05T07:58:48.726Z,8.10
2023-02-05T08:01:15.372Z,8.10
2023-02-05T08:03:42.246Z,6.60
2023-02-05T08:06:11.682Z,5.33
2023-02-05T08:08:38.310Z,9.37
2023-02-05T08:11:06.480Z,7.20
2023-02-05T08:13:33.787Z,5.70
2023-02-05T08:16:04.099Z,5.60
2023-02-05T08:18:30.748Z,4.70
2023-02-05T08:20:57.371Z,5.97
2023-02-05T08:23:24.227Z,6.60
2023-02-05T08:25:55.106Z,6.13
2023-02-05T08:28:22.476Z,5.20
2023-02-05T08:30:49.253Z,7.57
2023-02-05T08:33:17.223Z,6.47
2023-02-05T08:35:44.064Z,5.63
2023-02-05T08:38:10.761Z,7.30
2023-02-05T08:40:37.588Z,5.43
2023-02-05T08:43:04.357Z,5.53
2023-02-05T08:45:31.565Z,5.60
2023-02-05T08:47:58.312Z,7.10
2023-02-05T08:50:25.294Z,7.93
2023-02-05T08:52:51.957Z,7.23
2023-02-05T08:55:18.632Z,11.30
2023-02-05T08:57:45.767Z,8.77
2023-02-05T09:00:13.681Z,7.43
2023-02-05T09:02:42.344Z,7.17
2023-02-05T09:05:09.812Z,9.93
2023-02-05T09:07:40.976Z,6.63
2023-02-05T09:10:13.030Z,8.23
2023-02-05T09:12:40.900Z,8.53
2023-02-05T09:15:09.332Z,6.27
2023-02-05T09:17:36.034Z,5.43
2023-02-05T09:20:03.540Z,6.23
2023-02-05T09:22:30.179Z,7.17
2023-02-05T09:24:56.791Z,6.10
2023-02-05T09:27:24.254Z,5.60
2023-02-05T09:29:50.957Z,5.70
2023-02-05T09:32:17.590Z,5.70
2023-02-05T09:34:44.756Z,6.73
2023-02-05T09:37:11.445Z,5.10
2023-02-05T09:42:42.563Z,6.63
2023-02-05T09:45:28.193Z,6.30
2023-02-05T09:48:22.643Z,6.20
2023-02-05T09:50:50.406Z,7.50
2023-02-05T09:53:19.607Z,5.17
2023-02-05T09:55:48.669Z,5.40
2023-02-05T09:58:21.885Z,5.17
2023-02-05T10:00:59.276Z,5.30
2023-02-05T10:03:41.258Z,6.33
2023-02-05T10:06:13.634Z,5.67
2023-02-05T10:09:01.479Z,7.80
2023-02-05T10:11:41.649Z,5.90
2023-02-05T10:14:38.179Z,7.97
2023-02-05T10:17:24.706Z,8.63
2023-02-05T10:20:00.857Z,7.33
2023-02-05T10:22:48.686Z,7.97
2023-02-05T10:25:25.008Z,6.60
2023-02-05T10:28:09.917Z,6.63
2023-02-05T10:30:55.431Z,8.60
2023-02-05T10:33:46.721Z,7.00
2023-02-05T10:36:14.530Z,6.27
2023-02-05T10:38:44.658Z,5.60
2023-02-05T10:41:24.486Z,7.40
2023-02-05T10:43:59.261Z,5.40
2023-02-05T10:46:32.250Z,8.37
2023-02-05T10:49:24.457Z,6.63
2023-02-05T10:51:54.974Z,5.47
2023-02-05T10:54:28.127Z,5.87
2023-02-05T10:56:58.132Z,5.37
2023-02-05T10:59:28.149Z,5.33
2023-02-05T11:01:57.317Z,4.80
2023-02-05T11:04:45.982Z,5.07
2023-02-05T11:07:16.817Z,5.10
2023-02-05T11:09:44.472Z,4.77
2023-02-05T11:12:26.113Z,4.90
2023-02-05T11:14:58.995Z,7.03
2023-02-05T11:17:38.699Z,5.30
2023-02-05T11:20:24.986Z,5.97
2023-02-05T11:23:09.068Z,4.00
2023-02-05T11:25:35.781Z,5.17
2023-02-05T11:28:04.431Z,4.57
2023-02-05T11:30:54.236Z,5.47
2023-02-05T11:33:27.482Z,5.30
2023-02-05T11:35:59.934Z,6.10
2023-02-05T11:38:57.077Z,4.23
2023-02-05T11:41:48.275Z,7.53
2023-02-05T11:44:30.421Z,6.03
2023-02-05T11:47:00.210Z,7.73
2023-02-05T11:49:39.052Z,8.60
2023-02-05T11:52:11.650Z,16.00
2023-02-05T11:54:39.650Z,5.73
2023-02-05T11:57:18.548Z,5.53
2023-02-05T12:00:00.954Z,7.40
2023-02-05T12:02:30.417Z,7.70
2023-02-05T12:05:14.158Z,4.80
2023-02-05T12:07:50.579Z,5.37
2023-02-05T12:10:29.306Z,6.97
2023-02-05T12:13:27.316Z,4.90
2023-02-05T12:16:22.316Z,5.33
2023-02-05T12:19:17.549Z,7.47
2023-02-05T12:22:12.195Z,7.33
2023-02-05T12:24:58.551Z,7.90
2023-02-05T12:27:30.340Z,9.37
2023-02-05T12:30:25.922Z,7.07
2023-02-05T12:33:18.974Z,5.50
2023-02-05T12:36:04.819Z,6.83
2023-02-05T12:38:34.210Z,4.87
2023-02-05T12:41:15.010Z,4.67
2023-02-05T12:43:52.684Z,5.07
2023-02-05T12:46:25.975Z,5.07
2023-02-05T12:49:11.045Z,4.93
2023-02-05T12:51:47.281Z,5.63
2023-02-05T12:54:26.285Z,6.50
2023-02-05T12:57:01.889Z,4.73
2023-02-05T12:59:48.998Z,4.50
2023-02-05T13:02:20.672Z,4.60
2023-02-05T13:05:17.835Z,4.13
2023-02-05T13:07:55.095Z,4.70
2023-02-05T13:10:31.548Z,3.77
2023-02-05T13:13:03.097Z,6.23
2023-02-05T13:15:43.904Z,6.00
2023-02-05T13:18:26.352Z,4.30
2023-02-05T13:21:19.950Z,5.50
2023-02-05T13:24:08.047Z,4.07
2023-02-05T13:27:01.065Z,4.27
2023-02-05T13:29:33.913Z,5.43
2023-02-05T13:32:15.596Z,4.07
2023-02-05T13:34:43.981Z,3.93
2023-02-05T13:37:41.205Z,4.53
2023-02-05T13:40:15.388Z,5.17
2023-02-05T13:42:57.703Z,5.03
2023-02-05T13:45:50.862Z,3.40
2023-02-05T13:48:20.864Z,3.27
2023-02-05T13:51:10.469Z,5.77
2023-02-05T13:54:02.958Z,4.07
2023-02-05T13:56:36.019Z,4.57
2023-02-05T13:59:05.631Z,5.37
2023-02-05T14:01:40.436Z,3.13
2023-02-05T14:04:28.064Z,3.30
2023-02-05T14:07:02.941Z,3.27
2023-02-05T14:09:43.897Z,3.43
2023-02-05T14:12:13.726Z,2.90
2023-02-05T14:14:41.921Z,5.47
2023-02-05T14:17:45.152Z,3.67
2023-02-05T14:20:42.667Z,3.23
2023-02-05T14:23:15.700Z,4.47
2023-02-05T14:25:46.386Z,6.37
2023-02-05T14:28:16.505Z,4.63
2023-02-05T14:30:53.379Z,3.83
2023-02-05T14:33:29.313Z,4.70
2023-02-05T14:36:20.925Z,3.27
2023-02-05T14:39:02.492Z,4.50
2023-02-05T14:41:50.794Z,5.30
2023-02-05T14:44:25.399Z,3.50
2023-02-05T14:47:15.658Z,7.03
2023-02-05T14:49:46.864Z,6.20
2023-02-05T14:52:22.516Z,6.47
2023-02-05T14:55:01.127Z,6.93
2023-02-05T14:57:52.856Z,4.03
2023-02-05T15:00:38.192Z,4.00
2023-02-05T15:03:05.360Z,3.63
2023-02-05T15:05:41.677Z,3.33
2023-02-05T15:08:36.393Z,3.57
2023-02-05T15:11:21.227Z,4.43
2023-02-05T15:14:22.964Z,3.47
2023-02-05T15:17:10.648Z,3.93
2023-02-05T15:19:45.912Z,4.57
2023-02-05T15:22:41.099Z,3.60
2023-02-05T15:25:22.434Z,5.47
2023-02-05T15:28:25.267Z,6.10
2023-02-05T15:31:08.125Z,3.50
2023-02-05T15:33:55.256Z,3.57
2023-02-05T15:36:34.183Z,3.60
2023-02-05T15:39:15.980Z,3.70
2023-02-05T15:41:45.235Z,3.80
2023-02-05T15:44:30.548Z,4.57
2023-02-05T15:47:00.265Z,3.57
2023-02-05T15:50:05.250Z,3.43
2023-02-05T15:52:32.683Z,5.27
2023-02-05T15:55:08.284Z,3.73
2023-02-05T15:57:35.233Z,5.17
2023-02-05T16:00:03.085Z,3.80
2023-02-05T16:02:31.121Z,4.40
2023-02-05T16:05:14.453Z,5.10
2023-02-05T16:07:42.839Z,4.07
2023-02-05T16:10:18.848Z,7.30
2023-02-05T16:13:04.675Z,4.73
2023-02-05T16:15:39.510Z,5.07
2023-02-05T16:18:14.632Z,3.70
2023-02-05T16:20:46.936Z,5.30
2023-02-05T16:23:33.582Z,4.30
2023-02-05T16:26:11.109Z,4.73
2023-02-05T16:29:07.871Z,5.80
2023-02-05T16:31:37.445Z,5.27
2023-02-05T16:34:08.085Z,5.83
2023-02-05T16:36:38.986Z,6.83
2023-02-05T16:39:17.477Z,4.83
2023-02-05T16:41:44.504Z,5.23
2023-02-05T16:44:30.374Z,4.63
2023-02-05T16:47:18.213Z,5.17
2023-02-05T16:49:47.433Z,7.57
2023-02-05T16:52:34.314Z,7.60
2023-02-05T16:55:07.616Z,5.27
2023-02-05T16:57:38.795Z,5.13
2023-02-05T17:00:27.860Z,7.60
2023-02-05T17:02:57.208Z,6.50
2023-02-05T17:05:27.753Z,7.17
2023-02-05T17:08:09.164Z,5.43
2023-02-05T17:10:54.009Z,5.40
2023-02-05T17:13:47.000Z,3.97
2023-02-05T17:16:31.231Z,4.53
2023-02-05T17:19:01.330Z,5.77
2023-02-05T17:21:33.726Z,10.30
2023-02-05T17:24:02.872Z,6.23
2023-02-05T17:26:33.500Z,6.13
2023-02-05T17:29:03.377Z,7.20
2023-02-05T17:31:31.922Z,7.33
2023-02-05T17:33:59.853Z,6.33
2023-02-05T17:36:27.344Z,6.20
2023-02-05T17:38:54.060Z,5.70
2023-02-05T17:41:42.637Z,6.17
2023-02-05T17:44:15.637Z,8.87
2023-02-05T17:46:43.761Z,6.17
2023-02-05T17:49:10.874Z,5.97
2023-02-05T17:51:42.421Z,9.67
2023-02-05T17:54:18.091Z,6.23
2023-02-05T17:56:48.191Z,5.73
2023-02-05T17:59:18.488Z,7.03
2023-02-05T18:01:45.978Z,7.83
2023-02-05T18:04:13.172Z,8.20
2023-02-05T18:06:41.511Z,6.17
2023-02-05T18:09:12.566Z,6.97
2023-02-05T18:11:39.988Z,7.80
2023-02-05T18:14:06.903Z,8.67
2023-02-05T18:16:36.507Z,10.83
2023-02-05T18:19:03.623Z,8.83
2023-02-05T18:21:30.539Z,8.67
2023-02-05T18:23:57.250Z,9.43
2023-02-05T18:26:27.033Z,9.00
2023-02-05T18:28:54.088Z,7.87
2023-02-05T18:31:20.902Z,8.13
2023-02-05T18:33:49.159Z,7.43
2023-02-05T18:36:17.020Z,7.23
2023-02-05T18:38:43.782Z,7.70
2023-02-05T18:41:11.956Z,8.83
2023-02-05T18:43:39.168Z,8.73
2023-02-05T18:46:10.988Z,8.57
2023-02-05T18:48:40.718Z,7.40
2023-02-05T18:51:10.014Z,7.27
2023-02-05T18:53:40.607Z,6.57
2023-02-05T18:56:11.495Z,7.17
2023-02-05T18:58:38.396Z,13.00
2023-02-05T19:01:16.799Z,9.53
2023-02-05T19:03:44.116Z,8.93
2023-02-05T19:06:14.336Z,12.97
2023-02-05T19:08:41.728Z,8.87
2023-02-05T19:11:09.707Z,8.10
2023-02-05T19:13:37.417Z,9.40
2023-02-05T19:16:11.424Z,8.57
2023-02-05T19:18:38.601Z,9.07
2023-02-05T19:21:07.343Z,8.30
2023-02-05T19:23:34.596Z,7.10
2023-02-05T19:26:15.669Z,7.97
2023-02-05T19:28:44.744Z,7.10
2023-02-05T19:31:15.042Z,8.50
2023-02-05T19:33:43.140Z,8.37
2023-02-05T19:36:11.081Z,11.10
2023-02-05T19:38:40.101Z,7.63
2023-02-05T19:41:12.619Z,9.13
2023-02-05T19:43:40.710Z,7.77
2023-02-05T19:46:09.034Z,6.97
2023-02-05T19:48:36.027Z,8.10
2023-02-05T19:51:07.513Z,6.40
2023-02-05T19:53:35.656Z,9.53
2023-02-05T19:56:10.449Z,9.80
2023-02-05T19:58:39.697Z,7.23
2023-02-05T20:01:17.707Z,6.47
2023-02-05T20:03:45.291Z,8.20
2023-02-05T20:06:16.972Z,6.97
2023-02-05T20:08:44.929Z,7.70
2023-02-05T20:11:13.878Z,8.77
2023-02-05T20:13:41.269Z,9.10
2023-02-05T20:16:23.287Z,9.00
2023-02-05T20:18:55.407Z,8.93
2023-02-05T20:21:22.579Z,8.47
2023-02-05T20:23:49.691Z,7.80
2023-02-05T20:26:19.055Z,7.27
2023-02-05T20:29:05.836Z,10.13
2023-02-05T20:31:33.146Z,10.27
2023-02-05T20:34:05.547Z,8.13
2023-02-05T20:36:34.533Z,9.10
2023-02-05T20:39:04.140Z,10.20
2023-02-05T20:41:31.256Z,8.73
2023-02-05T20:43:58.491Z,8.37
2023-02-05T20:46:25.428Z,8.90
2023-02-05T20:48:52.236Z,10.70
2023-02-05T20:51:22.620Z,7.73
2023-02-05T20:53:49.814Z,7.43
2023-02-05T20:56:20.336Z,10.43
2023-02-05T20:58:47.560Z,7.63
2023-02-05T21:01:15.578Z,7.90
2023-02-05T21:03:50.418Z,9.57
2023-02-05T21:06:18.737Z,8.27
2023-02-05T21:08:47.941Z,8.10
2023-02-05T21:11:16.178Z,8.80
2023-02-05T21:13:44.941Z,10.10
2023-02-05T21:16:12.920Z,9.53
2023-02-05T21:18:40.303Z,10.70
2023-02-05T21:21:25.078Z,9.40
2023-02-05T21:24:00.434Z,7.93
2023-02-05T21:26:30.651Z,10.57
2023-02-05T21:29:02.435Z,8.90
2023-02-05T21:31:33.861Z,10.00
2023-02-05T21:34:05.768Z,10.63
2023-02-05T21:36:32.989Z,10.37
2023-02-05T21:39:00.301Z,8.10
2023-02-05T21:41:27.331Z,9.13
2023-02-05T21:44:02.119Z,9.50
2023-02-05T21:46:29.885Z,9.80
2023-02-05T21:48:58.161Z,11.00
2023-02-05T21:51:27.232Z,10.90
2023-02-05T21:53:57.155Z,9.87
2023-02-05T21:56:25.523Z,10.93
2023-02-05T21:58:52.216Z,8.70
2023-02-05T22:01:39.028Z,8.60
2023-02-05T22:04:11.047Z,10.73
2023-02-05T22:06:37.982Z,10.07
2023-02-05T22:09:06.615Z,8.93
2023-02-05T22:11:33.384Z,9.43
2023-02-05T22:14:00.113Z,9.50
2023-02-05T22:16:29.751Z,9.07
2023-02-05T22:18:57.209Z,9.27
2023-02-05T22:21:33.370Z,9.83
2023-02-05T22:24:01.971Z,8.07
2023-02-05T22:26:31.753Z,12.00
2023-02-05T22:29:00.145Z,9.53
2023-02-05T22:31:28.505Z,7.73
2023-02-05T22:33:56.154Z,10.17
2023-02-05T22:36:28.977Z,10.70
2023-02-05T22:38:56.571Z,9.30
2023-02-05T22:41:26.228Z,10.20
2023-02-05T22:43:56.151Z,13.30
2023-02-05T22:46:26.031Z,13.83
2023-02-05T22:48:53.973Z,14.87
2023-02-05T22:51:23.786Z,9.60
2023-02-05T22:53:52.330Z,12.40
2023-02-05T22:56:19.562Z,12.90
2023-02-05T22:58:47.544Z,11.13
2023-02-05T23:01:19.095Z,10.97
2023-02-05T23:03:48.992Z,11.87
2023-02-05T23:06:24.345Z,12.40
2023-02-05T23:08:56.213Z,13.90
2023-02-05T23:11:24.403Z,18.60
2023-02-05T23:13:51.215Z,17.90
2023-02-05T23:16:29.843Z,21.50
2023-02-05T23:19:00.091Z,17.43
2023-02-05T23:21:28.705Z,16.53
2023-02-05T23:23:56.081Z,17.43
2023-02-05T23:26:26.008Z,15.20
2023-02-05T23:28:54.384Z,17.30
2023-02-05T23:31:21.797Z,15.27
2023-02-05T23:33:48.935Z,14.57
2023-02-05T23:36:15.877Z,13.47
2023-02-05T23:38:42.768Z,16.23
2023-02-05T23:41:09.635Z,15.30
2023-02-05T23:43:37.246Z,14.13
2023-02-05T23:46:05.639Z,16.80
2023-02-05T23:48:32.783Z,13.50
2023-02-05T23:50:59.838Z,12.80
2023-02-05T23:53:26.886Z,13.07
2023-02-05T23:55:54.033Z,14.87
2023-02-05T23:58:25.626Z,14.63
